Terminal Aerodrome Forecast
Issued by NWS Anchorage, AK

Home | Current Version | Previous Version | Text Only | Print | Product List | Glossary On
Versions: 1 2 3 4 5 6 7 8 9 10 11 12 13 14 15 16 17 18 19 20 21 22 23 24 25 26 27 28 29 30 31 32 33 34 35 36 37 38 39 40 41 42 43 44 45 46
000
FTAK31 PANC 021452 AAB
TAFANC
TAF AMD
PANC 021452Z 0215/0318 VRB05KT P6SM SKC
     FM030300 VRB05KT P6SM FEW070 SCT200
     FM030900 VRB05KT P6SM BKN060 OVC100
     FM031300 03006KT P6SM VCSH BKN050 OVC080=

USA.gov is the U.S. government's official web portal to all federal, state and local government web resources and services.